createdAt,value
2023-01-15T00:00:19.667Z,100.00
2023-01-15T00:02:47.840Z,100.00
2023-01-15T00:05:19.130Z,100.00
2023-01-15T00:07:51.957Z,100.00
2023-01-15T00:10:20.406Z,100.00
2023-01-15T00:12:48.777Z,100.00
2023-01-15T00:15:17.655Z,100.00
2023-01-15T00:17:46.044Z,100.00
2023-01-15T00:20:14.716Z,100.00
2023-01-15T00:22:43.097Z,100.00
2023-01-15T00:25:45.294Z,100.00
2023-01-15T00:28:15.239Z,100.00
2023-01-15T00:30:49.618Z,100.00
2023-01-15T00:33:17.974Z,100.00
2023-01-15T00:35:48.987Z,100.00
2023-01-15T00:38:17.307Z,100.00
2023-01-15T00:40:53.119Z,100.00
2023-01-15T00:43:21.352Z,100.00
2023-01-15T00:45:55.658Z,100.00
2023-01-15T00:48:24.043Z,100.00
2023-01-15T00:50:52.725Z,100.00
2023-01-15T00:53:21.099Z,100.00
2023-01-15T00:55:51.221Z,100.00
2023-01-15T00:58:19.417Z,100.00
2023-01-15T01:00:48.212Z,100.00
2023-01-15T01:03:16.506Z,100.00
2023-01-15T01:05:44.858Z,100.00
2023-01-15T01:08:14.357Z,100.00
2023-01-15T01:10:46.431Z,100.00
2023-01-15T01:13:16.411Z,100.00
2023-01-15T01:15:46.833Z,100.00
2023-01-15T01:18:15.088Z,100.00
2023-01-15T01:20:43.387Z,100.00
2023-01-15T01:23:11.605Z,100.00
2023-01-15T01:25:43.246Z,100.00
2023-01-15T01:28:11.882Z,100.00
2023-01-15T01:30:41.705Z,100.00
2023-01-15T01:33:10.184Z,100.00
2023-01-15T01:35:41.249Z,100.00
2023-01-15T01:38:10.690Z,100.00
2023-01-15T01:40:41.678Z,100.00
2023-01-15T01:43:21.028Z,100.00
2023-01-15T01:45:50.967Z,100.00
2023-01-15T01:48:20.844Z,100.00
2023-01-15T01:50:51.028Z,100.00
2023-01-15T01:53:24.405Z,100.00
2023-01-15T01:55:54.171Z,100.00
2023-01-15T01:58:24.489Z,100.00
2023-01-15T02:00:54.860Z,100.00
2023-01-15T02:03:29.196Z,100.00
2023-01-15T02:06:00.971Z,100.00
2023-01-15T02:08:29.657Z,100.00
2023-01-15T02:10:58.234Z,100.00
2023-01-15T02:13:33.533Z,100.00
2023-01-15T02:16:11.333Z,100.00
2023-01-15T02:18:48.968Z,100.00
2023-01-15T02:21:28.865Z,100.00
2023-01-15T02:24:16.348Z,100.00
2023-01-15T02:27:07.216Z,100.00
2023-01-15T02:29:56.773Z,100.00
2023-01-15T02:32:42.024Z,100.00
2023-01-15T02:35:42.519Z,100.00
2023-01-15T02:38:21.999Z,100.00
2023-01-15T02:40:55.703Z,100.00
2023-01-15T02:43:42.228Z,100.00
2023-01-15T02:46:12.125Z,100.00
2023-01-15T02:48:42.956Z,100.00
2023-01-15T02:51:15.373Z,100.00
2023-01-15T02:53:48.142Z,100.00
2023-01-15T02:56:18.858Z,100.00
2023-01-15T02:58:51.887Z,100.00
2023-01-15T03:01:23.559Z,100.00
2023-01-15T03:04:02.170Z,100.00
2023-01-15T03:06:45.681Z,100.00
2023-01-15T03:09:15.253Z,100.00
2023-01-15T03:11:50.995Z,100.00
2023-01-15T03:14:30.697Z,100.00
2023-01-15T03:17:02.105Z,100.00
2023-01-15T03:19:36.110Z,100.00
2023-01-15T03:22:08.430Z,100.00
2023-01-15T03:24:43.531Z,100.00
2023-01-15T03:27:12.353Z,100.00
2023-01-15T03:29:47.309Z,100.00
2023-01-15T03:32:17.431Z,100.00
2023-01-15T03:34:47.821Z,100.00
2023-01-15T03:37:16.504Z,100.00
2023-01-15T03:39:45.230Z,100.00
2023-01-15T03:42:29.139Z,100.00
2023-01-15T03:45:07.985Z,100.00
2023-01-15T03:47:47.536Z,100.00
2023-01-15T03:50:23.999Z,100.00
2023-01-15T03:53:04.867Z,100.00
2023-01-15T03:55:44.667Z,100.00
2023-01-15T03:58:21.638Z,100.00
2023-01-15T04:00:54.310Z,100.00
2023-01-15T04:03:25.783Z,100.00
2023-01-15T04:05:57.221Z,100.00
2023-01-15T04:08:37.732Z,100.00
2023-01-15T04:11:07.024Z,100.00
2023-01-15T04:13:35.893Z,100.00
2023-01-15T04:16:06.420Z,100.00
2023-01-15T04:18:40.339Z,100.00
2023-01-15T04:21:08.644Z,100.00
2023-01-15T04:23:42.540Z,100.00
2023-01-15T04:26:10.837Z,100.00
2023-01-15T04:28:39.121Z,100.00
2023-01-15T04:31:08.995Z,100.00
2023-01-15T04:33:37.528Z,100.00
2023-01-15T04:36:06.634Z,100.00
2023-01-15T04:38:36.258Z,100.00
2023-01-15T04:41:23.187Z,100.00
2023-01-15T04:44:10.062Z,100.00
2023-01-15T04:46:41.871Z,100.00
2023-01-15T04:49:12.304Z,100.00
2023-01-15T04:51:41.045Z,100.00
2023-01-15T04:54:09.900Z,100.00
2023-01-15T04:56:41.071Z,100.00
2023-01-15T04:59:10.758Z,100.00
2023-01-15T05:01:48.561Z,100.00
2023-01-15T05:04:26.625Z,100.00
2023-01-15T05:06:54.871Z,100.00
2023-01-15T05:09:23.083Z,100.00
2023-01-15T05:11:51.242Z,100.00
2023-01-15T05:14:19.876Z,100.00
2023-01-15T05:16:49.631Z,100.00
2023-01-15T05:19:17.942Z,100.00
2023-01-15T05:21:46.616Z,100.00
2023-01-15T05:24:17.140Z,100.00
2023-01-15T05:26:45.679Z,100.00
2023-01-15T05:29:14.614Z,100.00
2023-01-15T05:31:46.281Z,100.00
2023-01-15T05:34:16.441Z,100.00
2023-01-15T05:36:45.855Z,100.00
2023-01-15T05:39:14.120Z,100.00
2023-01-15T05:41:51.353Z,100.00
2023-01-15T05:44:23.119Z,100.00
2023-01-15T05:46:52.217Z,100.00
2023-01-15T05:49:27.107Z,100.00
2023-01-15T05:51:55.958Z,100.00
2023-01-15T05:54:26.373Z,100.00
2023-01-15T05:56:56.486Z,100.00
2023-01-15T05:59:26.710Z,100.00
2023-01-15T06:01:55.310Z,100.00
2023-01-15T06:04:25.565Z,100.00
2023-01-15T06:06:55.735Z,100.00
2023-01-15T06:09:24.177Z,100.00
2023-01-15T06:11:53.825Z,100.00
2023-01-15T06:14:25.355Z,100.00
2023-01-15T06:16:53.619Z,100.00
2023-01-15T06:19:21.957Z,100.00
2023-01-15T06:21:51.804Z,100.00
2023-01-15T06:24:20.896Z,100.00
2023-01-15T06:26:49.231Z,100.00
2023-01-15T06:29:19.067Z,100.00
2023-01-15T06:31:48.357Z,100.00
2023-01-15T06:34:16.991Z,100.00
2023-01-15T06:36:45.394Z,100.00
2023-01-15T06:39:15.124Z,100.00
2023-01-15T06:42:00.927Z,100.00
2023-01-15T06:44:46.762Z,100.00
2023-01-15T06:47:24.220Z,100.00
2023-01-15T06:49:55.120Z,100.00
2023-01-15T06:52:24.620Z,100.00
2023-01-15T06:54:55.012Z,100.00
2023-01-15T06:57:23.586Z,100.00
2023-01-15T06:59:59.863Z,100.00
2023-01-15T07:02:28.140Z,100.00
2023-01-15T07:04:58.021Z,100.00
2023-01-15T07:07:26.649Z,100.00
2023-01-15T07:09:57.042Z,100.00
2023-01-15T07:12:25.308Z,100.00
2023-01-15T07:14:54.143Z,100.00
2023-01-15T07:17:22.444Z,100.00
2023-01-15T07:19:52.141Z,100.00
2023-01-15T07:22:20.458Z,100.00
2023-01-15T07:24:48.993Z,100.00
2023-01-15T07:27:18.663Z,100.00
2023-01-15T07:29:48.363Z,100.00
2023-01-15T07:32:17.001Z,100.00
2023-01-15T07:34:46.115Z,100.00
2023-01-15T07:37:14.317Z,100.00
2023-01-15T07:39:42.552Z,100.00
2023-01-15T07:42:37.810Z,100.00
2023-01-15T07:45:27.388Z,100.00
2023-01-15T07:48:13.385Z,100.00
2023-01-15T07:50:41.626Z,100.00
2023-01-15T07:53:09.796Z,100.00
2023-01-15T07:55:38.263Z,100.00
2023-01-15T07:58:06.536Z,100.00
2023-01-15T08:00:36.151Z,100.00
2023-01-15T08:03:07.557Z,100.00
2023-01-15T08:05:35.779Z,100.00
2023-01-15T08:08:06.610Z,100.00
2023-01-15T08:10:59.039Z,100.00
2023-01-15T08:13:44.744Z,100.00
2023-01-15T08:16:15.353Z,100.00
2023-01-15T08:18:52.583Z,100.00
2023-01-15T08:21:21.795Z,100.00
2023-01-15T08:24:26.078Z,100.00
2023-01-15T08:26:55.187Z,100.00
2023-01-15T08:29:23.919Z,100.00
2023-01-15T08:31:53.784Z,100.00
2023-01-15T08:34:22.388Z,100.00
2023-01-15T08:36:57.605Z,100.00
2023-01-15T08:39:25.907Z,100.00
2023-01-15T08:41:54.268Z,100.00
2023-01-15T08:44:23.769Z,100.00
2023-01-15T08:46:55.504Z,100.00
2023-01-15T08:49:23.969Z,100.00
2023-01-15T08:51:53.466Z,100.00
2023-01-15T08:54:24.618Z,100.00
2023-01-15T08:56:58.385Z,100.00
2023-01-15T08:59:27.095Z,100.00
2023-01-15T09:01:56.978Z,100.00
2023-01-15T09:04:25.649Z,100.00
2023-01-15T09:06:54.307Z,100.00
2023-01-15T09:09:22.734Z,100.00
2023-01-15T09:11:51.063Z,100.00
2023-01-15T09:15:00.292Z,100.00
2023-01-15T09:17:10.297Z,100.00
2023-01-15T09:19:39.155Z,100.00
2023-01-15T09:22:07.626Z,100.00
2023-01-15T09:24:35.931Z,100.00
2023-01-15T09:27:04.676Z,100.00
2023-01-15T09:29:34.377Z,100.00
2023-01-15T09:32:02.827Z,100.00
2023-01-15T09:34:32.601Z,100.00
2023-01-15T09:37:02.385Z,100.00
2023-01-15T09:39:30.878Z,100.00
2023-01-15T09:42:16.406Z,100.00
2023-01-15T09:45:08.979Z,100.00
2023-01-15T09:47:44.620Z,100.00
2023-01-15T09:50:25.416Z,100.00
2023-01-15T09:53:12.052Z,100.00
2023-01-15T09:55:46.978Z,100.00
2023-01-15T09:58:18.118Z,100.00
2023-01-15T10:00:48.682Z,100.00
2023-01-15T10:03:27.050Z,100.00
2023-01-15T10:06:04.191Z,100.00
2023-01-15T10:08:36.242Z,100.00
2023-01-15T10:11:07.475Z,100.00
2023-01-15T10:13:44.594Z,100.00
2023-01-15T10:16:15.397Z,100.00
2023-01-15T10:18:43.873Z,100.00
2023-01-15T10:21:24.403Z,100.00
2023-01-15T10:24:03.018Z,100.00
2023-01-15T10:26:36.659Z,100.00
2023-01-15T10:29:13.812Z,100.00
2023-01-15T10:32:19.336Z,100.00
2023-01-15T10:35:09.596Z,100.00
2023-01-15T10:37:46.261Z,100.00
2023-01-15T10:40:28.492Z,99.87
2023-01-15T10:43:03.811Z,99.10
2023-01-15T10:45:35.791Z,99.43
2023-01-15T10:48:12.746Z,97.94
2023-01-15T10:50:41.995Z,97.33
2023-01-15T10:53:36.691Z,96.78
2023-01-15T10:56:14.180Z,95.74
2023-01-15T10:58:47.467Z,95.93
2023-01-15T11:01:19.944Z,95.76
2023-01-15T11:03:48.893Z,95.37
2023-01-15T11:06:24.983Z,94.44
2023-01-15T11:09:12.675Z,94.46
2023-01-15T11:12:03.078Z,94.39
2023-01-15T11:14:57.033Z,94.53
2023-01-15T11:17:43.795Z,94.47
2023-01-15T11:20:19.223Z,93.98
2023-01-15T11:22:50.061Z,94.43
2023-01-15T11:25:31.295Z,94.39
2023-01-15T11:28:01.781Z,94.82
2023-01-15T11:30:33.569Z,94.59
2023-01-15T11:33:05.378Z,94.67
2023-01-15T11:35:35.191Z,94.47
2023-01-15T11:38:09.521Z,96.13
2023-01-15T11:40:53.657Z,95.82
2023-01-15T11:43:41.583Z,96.65
2023-01-15T11:46:42.293Z,98.98
2023-01-15T11:49:29.267Z,99.46
2023-01-15T11:51:59.972Z,100.00
2023-01-15T11:54:28.997Z,100.00
2023-01-15T11:57:00.324Z,100.00
2023-01-15T11:59:28.727Z,100.00
2023-01-15T12:02:08.964Z,100.00
2023-01-15T12:04:45.317Z,98.72
2023-01-15T12:07:15.638Z,98.22
2023-01-15T12:10:02.684Z,96.17
2023-01-15T12:12:43.671Z,95.79
2023-01-15T12:15:24.055Z,93.51
2023-01-15T12:18:16.329Z,93.60
2023-01-15T12:20:59.798Z,92.93
2023-01-15T12:23:46.184Z,92.20
2023-01-15T12:26:43.487Z,91.27
2023-01-15T12:29:23.419Z,89.60
2023-01-15T12:31:58.915Z,89.77
2023-01-15T12:34:43.284Z,91.25
2023-01-15T12:37:21.226Z,90.37
2023-01-15T12:39:53.753Z,91.52
2023-01-15T12:42:52.889Z,91.73
2023-01-15T12:45:27.185Z,90.80
2023-01-15T12:48:02.444Z,91.14
2023-01-15T12:50:44.853Z,91.48
2023-01-15T12:53:21.555Z,91.17
2023-01-15T12:55:56.261Z,91.28
2023-01-15T12:58:47.201Z,92.00
2023-01-15T13:01:27.074Z,91.88
2023-01-15T13:04:14.820Z,92.31
2023-01-15T13:06:48.768Z,92.12
2023-01-15T13:09:36.480Z,92.56
2023-01-15T13:12:05.138Z,92.98
2023-01-15T13:14:33.547Z,92.68
2023-01-15T13:17:18.597Z,92.46
2023-01-15T13:19:59.898Z,92.58
2023-01-15T13:22:31.905Z,93.23
2023-01-15T13:25:30.682Z,93.55
2023-01-15T13:28:14.436Z,93.92
2023-01-15T13:30:54.278Z,93.89
2023-01-15T13:33:31.149Z,94.06
2023-01-15T13:36:08.979Z,95.04
2023-01-15T13:38:43.376Z,95.06
2023-01-15T13:41:12.063Z,95.38
2023-01-15T13:43:44.092Z,96.08
2023-01-15T13:46:14.823Z,96.40
2023-01-15T13:48:48.833Z,96.90
2023-01-15T13:51:29.366Z,94.98
2023-01-15T13:54:33.965Z,94.59
2023-01-15T13:57:09.562Z,95.40
2023-01-15T13:59:44.611Z,94.61
2023-01-15T14:02:26.153Z,94.16
2023-01-15T14:04:57.451Z,94.67
2023-01-15T14:07:37.728Z,94.32
2023-01-15T14:10:25.113Z,93.32
2023-01-15T14:13:07.980Z,92.63
2023-01-15T14:15:47.689Z,93.53
2023-01-15T14:18:40.554Z,93.74
2023-01-15T14:21:24.736Z,93.86
2023-01-15T14:24:18.591Z,95.20
2023-01-15T14:26:55.533Z,94.62
2023-01-15T14:29:51.012Z,94.53
2023-01-15T14:32:30.122Z,94.82
2023-01-15T14:35:00.738Z,95.49
2023-01-15T14:37:57.640Z,95.90
2023-01-15T14:40:31.517Z,95.80
2023-01-15T14:43:02.235Z,96.09
2023-01-15T14:45:33.659Z,95.96
2023-01-15T14:48:16.725Z,95.34
2023-01-15T14:50:45.735Z,96.95
2023-01-15T14:53:33.889Z,96.74
2023-01-15T14:56:13.153Z,97.75
2023-01-15T14:58:56.303Z,97.64
2023-01-15T15:01:36.858Z,97.71
2023-01-15T15:04:23.611Z,98.32
2023-01-15T15:06:55.548Z,98.07
2023-01-15T15:09:34.199Z,97.22
2023-01-15T15:12:24.222Z,96.89
2023-01-15T15:15:01.697Z,98.14
2023-01-15T15:17:41.265Z,98.20
2023-01-15T15:20:29.374Z,97.58
2023-01-15T15:23:04.889Z,98.25
2023-01-15T15:25:39.533Z,98.23
2023-01-15T15:28:11.659Z,99.77
2023-01-15T15:30:45.495Z,99.53
2023-01-15T15:33:19.241Z,99.42
2023-01-15T15:35:51.055Z,100.00
2023-01-15T15:38:22.549Z,100.00
2023-01-15T15:45:03.105Z,100.00
2023-01-15T15:47:57.307Z,100.00
2023-01-15T15:50:34.186Z,100.00
2023-01-15T15:53:06.685Z,100.00
2023-01-15T15:55:40.512Z,100.00
2023-01-15T15:58:11.178Z,100.00
2023-01-15T16:00:43.471Z,100.00
2023-01-15T16:03:20.928Z,100.00
2023-01-15T16:06:05.794Z,100.00
2023-01-15T16:08:35.772Z,100.00
2023-01-15T16:11:07.449Z,100.00
2023-01-15T16:13:39.745Z,100.00
2023-01-15T16:16:10.635Z,100.00
2023-01-15T16:18:44.599Z,100.00
2023-01-15T16:21:20.057Z,100.00
2023-01-15T16:23:58.113Z,100.00
2023-01-15T16:26:34.455Z,100.00
2023-01-15T16:29:05.173Z,100.00
2023-01-15T16:31:39.143Z,100.00
2023-01-15T16:34:07.739Z,100.00
2023-01-15T16:36:41.521Z,100.00
2023-01-15T16:39:22.286Z,100.00
2023-01-15T16:41:52.405Z,100.00
2023-01-15T16:44:33.700Z,100.00
2023-01-15T16:47:09.419Z,100.00
2023-01-15T16:49:37.686Z,100.00
2023-01-15T16:52:50.416Z,100.00
2023-01-15T16:55:41.545Z,100.00
2023-01-15T16:58:22.668Z,100.00
2023-01-15T17:00:53.375Z,100.00
2023-01-15T17:03:25.385Z,100.00
2023-01-15T17:05:56.403Z,100.00
2023-01-15T17:08:38.761Z,100.00
2023-01-15T17:11:17.561Z,100.00
2023-01-15T17:13:46.796Z,100.00
2023-01-15T17:16:20.443Z,100.00
2023-01-15T17:18:51.949Z,100.00
2023-01-15T17:21:23.745Z,100.00
2023-01-15T17:23:52.480Z,98.68
2023-01-15T17:26:23.272Z,98.40
2023-01-15T17:28:57.695Z,97.71
2023-01-15T17:31:28.557Z,97.67
2023-01-15T17:33:59.562Z,96.51
2023-01-15T17:36:29.451Z,96.40
2023-01-15T17:38:58.986Z,96.61
2023-01-15T17:41:28.291Z,96.61
2023-01-15T17:43:57.026Z,96.82
2023-01-15T17:46:25.632Z,97.12
2023-01-15T17:48:54.045Z,98.36
2023-01-15T17:51:24.042Z,97.69
2023-01-15T17:53:52.570Z,98.62
2023-01-15T17:56:38.405Z,99.17
2023-01-15T17:59:24.433Z,100.00
2023-01-15T18:02:10.454Z,100.00
2023-01-15T18:05:00.201Z,100.00
2023-01-15T18:07:33.959Z,100.00
2023-01-15T18:10:03.511Z,100.00
2023-01-15T18:12:32.277Z,100.00
2023-01-15T18:15:00.586Z,100.00
2023-01-15T18:17:31.817Z,100.00
2023-01-15T18:20:00.521Z,100.00
2023-01-15T18:22:31.222Z,100.00
2023-01-15T18:24:59.484Z,100.00
2023-01-15T18:27:30.390Z,100.00
2023-01-15T18:29:59.429Z,100.00
2023-01-15T18:32:30.752Z,100.00
2023-01-15T18:34:59.271Z,100.00
2023-01-15T18:37:36.483Z,100.00
2023-01-15T18:40:06.300Z,100.00
2023-01-15T18:42:51.848Z,100.00
2023-01-15T18:45:37.849Z,100.00
2023-01-15T18:48:08.302Z,100.00
2023-01-15T18:50:36.892Z,100.00
2023-01-15T18:53:08.762Z,100.00
2023-01-15T18:55:38.558Z,100.00
2023-01-15T18:58:06.966Z,100.00
2023-01-15T19:00:35.524Z,100.00
2023-01-15T19:03:04.984Z,100.00
2023-01-15T19:05:34.545Z,100.00
2023-01-15T19:08:03.325Z,100.00
2023-01-15T19:10:33.137Z,100.00
2023-01-15T19:13:03.269Z,100.00
2023-01-15T19:15:49.399Z,100.00
2023-01-15T19:18:35.913Z,100.00
2023-01-15T19:21:10.527Z,100.00
2023-01-15T19:23:40.919Z,100.00
2023-01-15T19:26:11.043Z,100.00
2023-01-15T19:28:42.413Z,100.00
2023-01-15T19:31:29.387Z,100.00
2023-01-15T19:34:31.188Z,100.00
2023-01-15T19:36:48.696Z,100.00
2023-01-15T19:39:18.614Z,100.00
2023-01-15T19:42:08.314Z,100.00
2023-01-15T19:44:53.923Z,100.00
2023-01-15T19:47:44.111Z,100.00
2023-01-15T19:50:21.308Z,100.00
2023-01-15T19:52:51.460Z,100.00
2023-01-15T19:55:21.489Z,100.00
2023-01-15T19:58:00.381Z,100.00
2023-01-15T20:00:29.327Z,100.00
2023-01-15T20:02:58.990Z,100.00
2023-01-15T20:05:30.292Z,100.00
2023-01-15T20:07:59.547Z,100.00
2023-01-15T20:10:30.087Z,100.00
2023-01-15T20:13:17.314Z,100.00
2023-01-15T20:15:51.603Z,100.00
2023-01-15T20:18:22.904Z,100.00
2023-01-15T20:20:51.535Z,100.00
2023-01-15T20:23:19.804Z,100.00
2023-01-15T20:25:57.315Z,100.00
2023-01-15T20:28:27.092Z,100.00
2023-01-15T20:30:56.424Z,100.00
2023-01-15T20:33:25.047Z,100.00
2023-01-15T20:35:54.589Z,100.00
2023-01-15T20:38:24.949Z,100.00
2023-01-15T20:40:53.390Z,100.00
2023-01-15T20:43:40.481Z,100.00
2023-01-15T20:46:17.632Z,100.00
2023-01-15T20:49:03.236Z,100.00
2023-01-15T20:51:33.355Z,100.00
2023-01-15T20:54:16.546Z,100.00
2023-01-15T20:56:44.912Z,100.00
2023-01-15T20:59:21.537Z,100.00
2023-01-15T21:01:53.543Z,100.00
2023-01-15T21:04:30.192Z,100.00
2023-01-15T21:06:58.621Z,100.00
2023-01-15T21:09:26.995Z,100.00
2023-01-15T21:11:55.588Z,100.00
2023-01-15T21:14:25.294Z,100.00
2023-01-15T21:16:55.170Z,100.00
2023-01-15T21:19:24.923Z,100.00
2023-01-15T21:21:53.273Z,100.00
2023-01-15T21:24:23.524Z,100.00
2023-01-15T21:26:54.249Z,100.00
2023-01-15T21:29:24.373Z,100.00
2023-01-15T21:31:54.095Z,100.00
2023-01-15T21:34:24.124Z,100.00
2023-01-15T21:37:02.965Z,100.00
2023-01-15T21:39:43.271Z,100.00
2023-01-15T21:42:34.837Z,100.00
2023-01-15T21:45:06.735Z,100.00
2023-01-15T21:47:37.021Z,100.00
2023-01-15T21:50:07.735Z,100.00
2023-01-15T21:52:37.190Z,100.00
2023-01-15T21:55:07.618Z,100.00
2023-01-15T21:57:35.942Z,100.00
2023-01-15T22:00:08.029Z,100.00
2023-01-15T22:02:44.881Z,100.00
2023-01-15T22:05:14.879Z,100.00
2023-01-15T22:07:51.567Z,100.00
2023-01-15T22:10:20.208Z,100.00
2023-01-15T22:12:49.470Z,100.00
2023-01-15T22:15:17.928Z,100.00
2023-01-15T22:17:47.043Z,100.00
2023-01-15T22:20:16.948Z,100.00
2023-01-15T22:22:45.141Z,100.00
2023-01-15T22:25:15.810Z,100.00
2023-01-15T22:27:44.117Z,100.00
2023-01-15T22:30:15.721Z,100.00
2023-01-15T22:32:44.336Z,100.00
2023-01-15T22:35:14.352Z,100.00
2023-01-15T22:37:44.051Z,100.00
2023-01-15T22:40:13.809Z,100.00
2023-01-15T22:42:42.093Z,100.00
2023-01-15T22:45:20.779Z,100.00
2023-01-15T22:47:51.221Z,100.00
2023-01-15T22:50:19.936Z,100.00
2023-01-15T22:52:52.174Z,100.00
2023-01-15T22:55:20.552Z,100.00
2023-01-15T22:57:49.295Z,100.00
2023-01-15T23:00:19.043Z,100.00
2023-01-15T23:02:58.231Z,100.00
2023-01-15T23:05:26.460Z,100.00
2023-01-15T23:07:56.386Z,100.00
2023-01-15T23:10:24.595Z,100.00
2023-01-15T23:12:52.886Z,100.00
2023-01-15T23:15:21.143Z,100.00
2023-01-15T23:29:12.600Z,100.00
2023-01-15T23:31:40.829Z,100.00
2023-01-15T23:34:10.227Z,100.00
2023-01-15T23:36:39.402Z,100.00
2023-01-15T23:39:08.119Z,100.00
2023-01-15T23:41:53.991Z,100.00
2023-01-15T23:44:41.562Z,100.00
2023-01-15T23:47:10.236Z,100.00
2023-01-15T23:49:38.596Z,100.00
2023-01-15T23:52:07.954Z,100.00
2023-01-15T23:54:36.333Z,100.00
2023-01-15T23:57:04.919Z,100.00
2023-01-15T23:59:34.632Z,100.00
